Conroe Lone Star Executive Airport

Current Flights

Departures
Number Departure To Airline
 N753JB 09:30 +10  San Marcos  Flybe Nordic
 N960SF 12:00 +23  Washington  Novair
Arrivals
Number Arrival From Airline
 N960SF 11:14  Oakland  Novair
 N753JB 13:39  San Marcos  Flybe Nordic
Info
Name: Conroe Lone Star Executive Airport
Identifier:  CXO/KCXO
Local Time:  19. May 09:52
City
Flights per Day
8 flights
Distance: 541km (336mi)
Punctuality
87% (1 flights per day delayed)
Delay Average: 37 minutes
Current Weather
 27 C (Humidity: 83%)
  6kt (11km/h / 6mph) from 200°
  Few clouds at 1,000 feet (304 meter)
  Broken clouds at 1,800 feet (548 meter)
  Overcast at 2,400 feet (731 meter)
  9km (6 mi.)
 Mist
 METAR KCXO 191353Z 20006KT 6SM BR FEW010 BKN018 OVC024 27/24 A2987 RMK AO2 SLP110 T02670244

Current Delays

Departures
N/A
Arrivals
N/A

Destinations

Top Destinations
Airport Flights
per week
Seats
per week
  San Marcos (HYI) <1 - 0 0
  Sugar Land (SGR) <1 - 0 0
  Tyler (TYR) <1 - 0 0
  New Orleans (NEW) <1 - 0 0
  Kerrville (ERV) <1 - 0 0

Airlines & Planes

Top Airlines
Airline Flights
per Day
Seats
per Day
  Nolinor Aviation 1 -
  National Airlines 1 -
Jet Charter Inc ( Franklin Lakes Nj ) <1 -
  Novair <1 -
NetJets <1 -1
Nordwind Airlines <1 -
  Flybe Nordic <1 -
Executive Flight Services <1 -
Gama Aviation <1 -
Top Plane Types
Manufacturer Model Flights Seats
Pilatus PC-12 0.6/day - 0
Piper PA28-181 0.5/day - 0
Embraer Phenom 300 0.3/day - -0.2
Cessna C56X 0.3/day - -0.4